sensor_id;sensor_type;location;lat;lon;timestamp;temperature;humidity
18906;DHT22;9585;51.018;4.282;2024-01-07T00:01:29;3.80;99.90
18906;DHT22;9585;51.018;4.282;2024-01-07T00:03:58;3.80;99.90
18906;DHT22;9585;51.018;4.282;2024-01-07T00:06:26;3.80;99.90
18906;DHT22;9585;51.018;4.282;2024-01-07T00:08:53;3.80;99.90
18906;DHT22;9585;51.018;4.282;2024-01-07T00:11:21;3.90;99.90
18906;DHT22;9585;51.018;4.282;2024-01-07T00:13:48;3.90;99.90
18906;DHT22;9585;51.018;4.282;2024-01-07T00:16:16;3.70;99.90
18906;DHT22;9585;51.018;4.282;2024-01-07T00:18:45;3.70;99.90
18906;DHT22;9585;51.018;4.282;2024-01-07T00:21:14;3.80;99.90
18906;DHT22;9585;51.018;4.282;2024-01-07T00:23:41;3.70;99.90
18906;DHT22;9585;51.018;4.282;2024-01-07T00:26:10;3.90;99.90
18906;DHT22;9585;51.018;4.282;2024-01-07T00:28:40;3.80;99.90
18906;DHT22;9585;51.018;4.282;2024-01-07T00:31:07;3.90;99.90
18906;DHT22;9585;51.018;4.282;2024-01-07T00:33:35;3.80;99.90
18906;DHT22;9585;51.018;4.282;2024-01-07T00:36:03;3.80;99.90
18906;DHT22;9585;51.018;4.282;2024-01-07T00:38:33;3.80;99.90
18906;DHT22;9585;51.018;4.282;2024-01-07T00:41:01;3.90;99.90
18906;DHT22;9585;51.018;4.282;2024-01-07T00:43:28;3.80;99.90
18906;DHT22;9585;51.018;4.282;2024-01-07T00:45:56;3.80;99.90
18906;DHT22;9585;51.018;4.282;2024-01-07T00:48:24;3.70;99.90
18906;DHT22;9585;51.018;4.282;2024-01-07T00:50:55;3.70;99.90
18906;DHT22;9585;51.018;4.282;2024-01-07T00:53:23;3.80;99.90
18906;DHT22;9585;51.018;4.282;2024-01-07T01:51:16;3.80;99.90
18906;DHT22;9585;51.018;4.282;2024-01-07T01:53:45;3.70;99.90
18906;DHT22;9585;51.018;4.282;2024-01-07T01:56:14;3.80;99.90
18906;DHT22;9585;51.018;4.282;2024-01-07T01:58:42;3.60;99.90
18906;DHT22;9585;51.018;4.282;2024-01-07T02:01:11;3.40;99.90
18906;DHT22;9585;51.018;4.282;2024-01-07T02:03:39;3.50;99.90
18906;DHT22;9585;51.018;4.282;2024-01-07T02:06:12;3.20;99.90
18906;DHT22;9585;51.018;4.282;2024-01-07T02:08:41;3.30;99.90
18906;DHT22;9585;51.018;4.282;2024-01-07T02:11:17;3.40;99.90
18906;DHT22;9585;51.018;4.282;2024-01-07T02:13:46;3.30;99.90
18906;DHT22;9585;51.018;4.282;2024-01-07T02:16:14;3.20;99.90
18906;DHT22;9585;51.018;4.282;2024-01-07T02:18:44;3.10;99.90
18906;DHT22;9585;51.018;4.282;2024-01-07T02:21:27;3.10;99.90
18906;DHT22;9585;51.018;4.282;2024-01-07T02:23:54;3.10;99.90
18906;DHT22;9585;51.018;4.282;2024-01-07T02:26:24;3.20;99.90
18906;DHT22;9585;51.018;4.282;2024-01-07T02:29:05;3.20;99.90
18906;DHT22;9585;51.018;4.282;2024-01-07T02:31:33;3.10;99.90
18906;DHT22;9585;51.018;4.282;2024-01-07T02:34:01;3.10;99.90
18906;DHT22;9585;51.018;4.282;2024-01-07T02:36:28;3.10;99.90
18906;DHT22;9585;51.018;4.282;2024-01-07T02:38:56;3.10;99.90
18906;DHT22;9585;51.018;4.282;2024-01-07T02:41:25;3.20;99.90
18906;DHT22;9585;51.018;4.282;2024-01-07T02:43:53;3.20;99.90
18906;DHT22;9585;51.018;4.282;2024-01-07T02:46:24;3.20;99.90
18906;DHT22;9585;51.018;4.282;2024-01-07T02:48:52;3.20;99.90
18906;DHT22;9585;51.018;4.282;2024-01-07T02:51:19;3.00;99.90
18906;DHT22;9585;51.018;4.282;2024-01-07T03:48:32;2.80;99.90
18906;DHT22;9585;51.018;4.282;2024-01-07T03:51:01;2.80;99.90
18906;DHT22;9585;51.018;4.282;2024-01-07T03:53:28;2.60;99.90
18906;DHT22;9585;51.018;4.282;2024-01-07T03:55:56;2.60;99.90
18906;DHT22;9585;51.018;4.282;2024-01-07T03:58:24;2.40;99.90
18906;DHT22;9585;51.018;4.282;2024-01-07T04:00:52;2.50;99.90
18906;DHT22;9585;51.018;4.282;2024-01-07T04:03:20;2.60;99.90
18906;DHT22;9585;51.018;4.282;2024-01-07T04:05:50;2.60;99.90
18906;DHT22;9585;51.018;4.282;2024-01-07T04:08:20;2.70;99.90
18906;DHT22;9585;51.018;4.282;2024-01-07T04:10:48;2.80;99.90
18906;DHT22;9585;51.018;4.282;2024-01-07T04:54:40;2.60;99.90
18906;DHT22;9585;51.018;4.282;2024-01-07T04:57:09;2.60;99.90
18906;DHT22;9585;51.018;4.282;2024-01-07T04:59:37;2.50;99.90
18906;DHT22;9585;51.018;4.282;2024-01-07T05:02:05;2.50;99.90
18906;DHT22;9585;51.018;4.282;2024-01-07T05:04:39;2.50;99.90
18906;DHT22;9585;51.018;4.282;2024-01-07T05:07:08;2.60;99.90
18906;DHT22;9585;51.018;4.282;2024-01-07T05:09:38;2.50;99.90
18906;DHT22;9585;51.018;4.282;2024-01-07T05:12:07;2.50;99.90
18906;DHT22;9585;51.018;4.282;2024-01-07T05:14:36;2.60;99.90
18906;DHT22;9585;51.018;4.282;2024-01-07T05:17:04;2.50;99.90
18906;DHT22;9585;51.018;4.282;2024-01-07T05:19:32;2.60;99.90
18906;DHT22;9585;51.018;4.282;2024-01-07T05:22:10;2.70;99.90
18906;DHT22;9585;51.018;4.282;2024-01-07T05:24:40;2.90;99.90
18906;DHT22;9585;51.018;4.282;2024-01-07T05:27:09;2.50;99.90
18906;DHT22;9585;51.018;4.282;2024-01-07T05:29:39;2.40;99.90
18906;DHT22;9585;51.018;4.282;2024-01-07T05:32:11;2.40;99.90
18906;DHT22;9585;51.018;4.282;2024-01-07T05:34:40;2.40;99.90
18906;DHT22;9585;51.018;4.282;2024-01-07T05:37:09;2.40;99.90
18906;DHT22;9585;51.018;4.282;2024-01-07T05:39:36;2.40;99.90
18906;DHT22;9585;51.018;4.282;2024-01-07T05:42:07;2.40;99.90
18906;DHT22;9585;51.018;4.282;2024-01-07T05:44:35;2.50;99.90
18906;DHT22;9585;51.018;4.282;2024-01-07T05:47:04;2.60;99.90
18906;DHT22;9585;51.018;4.282;2024-01-07T05:49:34;2.50;99.90
18906;DHT22;9585;51.018;4.282;2024-01-07T05:52:02;2.40;99.90
18906;DHT22;9585;51.018;4.282;2024-01-07T05:54:33;2.50;99.90
18906;DHT22;9585;51.018;4.282;2024-01-07T05:57:01;2.60;99.90
18906;DHT22;9585;51.018;4.282;2024-01-07T05:59:31;2.60;99.90
18906;DHT22;9585;51.018;4.282;2024-01-07T06:01:59;2.60;99.90
18906;DHT22;9585;51.018;4.282;2024-01-07T06:04:27;2.50;99.90
18906;DHT22;9585;51.018;4.282;2024-01-07T06:06:54;2.40;99.90
18906;DHT22;9585;51.018;4.282;2024-01-07T06:09:22;2.30;99.90
18906;DHT22;9585;51.018;4.282;2024-01-07T06:11:54;2.40;99.90
18906;DHT22;9585;51.018;4.282;2024-01-07T06:14:21;2.50;99.90
18906;DHT22;9585;51.018;4.282;2024-01-07T06:16:53;2.40;99.90
18906;DHT22;9585;51.018;4.282;2024-01-07T06:19:21;2.50;99.90
18906;DHT22;9585;51.018;4.282;2024-01-07T06:21:48;2.60;99.90
18906;DHT22;9585;51.018;4.282;2024-01-07T06:24:16;2.60;99.90
18906;DHT22;9585;51.018;4.282;2024-01-07T06:26:44;2.50;99.90
18906;DHT22;9585;51.018;4.282;2024-01-07T06:29:12;2.50;99.90
18906;DHT22;9585;51.018;4.282;2024-01-07T06:31:43;2.60;99.90
18906;DHT22;9585;51.018;4.282;2024-01-07T06:34:13;2.60;99.90
18906;DHT22;9585;51.018;4.282;2024-01-07T06:36:41;2.50;99.90
18906;DHT22;9585;51.018;4.282;2024-01-07T06:39:09;2.60;99.90
18906;DHT22;9585;51.018;4.282;2024-01-07T06:41:36;2.60;99.90
18906;DHT22;9585;51.018;4.282;2024-01-07T06:44:04;2.60;99.90
18906;DHT22;9585;51.018;4.282;2024-01-07T06:46:32;2.50;99.90
18906;DHT22;9585;51.018;4.282;2024-01-07T06:49:00;2.70;99.90
18906;DHT22;9585;51.018;4.282;2024-01-07T06:51:30;2.80;99.90
18906;DHT22;9585;51.018;4.282;2024-01-07T06:53:57;2.60;99.90
18906;DHT22;9585;51.018;4.282;2024-01-07T06:56:25;2.60;99.90
18906;DHT22;9585;51.018;4.282;2024-01-07T06:58:52;2.50;99.90
18906;DHT22;9585;51.018;4.282;2024-01-07T07:01:20;2.40;99.90
18906;DHT22;9585;51.018;4.282;2024-01-07T07:03:49;2.50;99.90
18906;DHT22;9585;51.018;4.282;2024-01-07T07:06:17;2.40;99.90
18906;DHT22;9585;51.018;4.282;2024-01-07T07:08:46;2.40;99.90
18906;DHT22;9585;51.018;4.282;2024-01-07T07:11:14;2.60;99.90
18906;DHT22;9585;51.018;4.282;2024-01-07T07:13:44;2.60;99.90
18906;DHT22;9585;51.018;4.282;2024-01-07T07:16:12;2.60;99.90
18906;DHT22;9585;51.018;4.282;2024-01-07T07:18:39;2.50;99.90
18906;DHT22;9585;51.018;4.282;2024-01-07T07:21:07;2.50;99.90
18906;DHT22;9585;51.018;4.282;2024-01-07T07:23:35;2.70;99.90
18906;DHT22;9585;51.018;4.282;2024-01-07T07:26:04;2.60;99.90
18906;DHT22;9585;51.018;4.282;2024-01-07T07:28:33;2.60;99.90
18906;DHT22;9585;51.018;4.282;2024-01-07T07:30:59;2.60;99.90
18906;DHT22;9585;51.018;4.282;2024-01-07T07:33:27;2.40;99.90
18906;DHT22;9585;51.018;4.282;2024-01-07T07:35:57;2.30;99.90
18906;DHT22;9585;51.018;4.282;2024-01-07T07:38:29;2.40;99.90
18906;DHT22;9585;51.018;4.282;2024-01-07T07:40:57;2.40;99.90
18906;DHT22;9585;51.018;4.282;2024-01-07T07:43:27;2.50;99.90
18906;DHT22;9585;51.018;4.282;2024-01-07T07:45:55;2.30;99.90
18906;DHT22;9585;51.018;4.282;2024-01-07T07:48:23;2.30;99.90
18906;DHT22;9585;51.018;4.282;2024-01-07T07:50:57;2.10;99.90
18906;DHT22;9585;51.018;4.282;2024-01-07T07:53:39;2.20;99.90
18906;DHT22;9585;51.018;4.282;2024-01-07T07:56:07;2.40;99.90
18906;DHT22;9585;51.018;4.282;2024-01-07T07:58:36;2.40;99.90
18906;DHT22;9585;51.018;4.282;2024-01-07T08:01:04;2.60;99.90
18906;DHT22;9585;51.018;4.282;2024-01-07T08:03:32;2.60;99.90
18906;DHT22;9585;51.018;4.282;2024-01-07T08:06:00;2.50;99.90
18906;DHT22;9585;51.018;4.282;2024-01-07T08:08:28;2.60;99.90
18906;DHT22;9585;51.018;4.282;2024-01-07T08:10:56;2.60;99.90
18906;DHT22;9585;51.018;4.282;2024-01-07T08:13:24;2.60;99.90
18906;DHT22;9585;51.018;4.282;2024-01-07T08:15:54;2.50;99.90
18906;DHT22;9585;51.018;4.282;2024-01-07T08:18:22;2.50;99.90
18906;DHT22;9585;51.018;4.282;2024-01-07T08:20:50;2.60;99.90
18906;DHT22;9585;51.018;4.282;2024-01-07T08:23:18;2.60;99.90
18906;DHT22;9585;51.018;4.282;2024-01-07T08:25:45;2.50;99.90
18906;DHT22;9585;51.018;4.282;2024-01-07T08:28:13;2.40;99.90
18906;DHT22;9585;51.018;4.282;2024-01-07T08:30:41;2.40;99.90
18906;DHT22;9585;51.018;4.282;2024-01-07T08:33:11;2.30;99.90
18906;DHT22;9585;51.018;4.282;2024-01-07T08:35:38;2.30;99.90
18906;DHT22;9585;51.018;4.282;2024-01-07T08:38:06;2.40;99.90
18906;DHT22;9585;51.018;4.282;2024-01-07T08:40:34;2.60;99.90
18906;DHT22;9585;51.018;4.282;2024-01-07T08:43:02;2.50;99.90
18906;DHT22;9585;51.018;4.282;2024-01-07T08:45:30;2.60;99.90
18906;DHT22;9585;51.018;4.282;2024-01-07T08:47:58;2.50;99.90
18906;DHT22;9585;51.018;4.282;2024-01-07T08:50:27;2.50;99.90
18906;DHT22;9585;51.018;4.282;2024-01-07T08:52:57;2.50;99.90
18906;DHT22;9585;51.018;4.282;2024-01-07T08:55:25;2.50;99.90
18906;DHT22;9585;51.018;4.282;2024-01-07T08:57:56;2.30;99.90
18906;DHT22;9585;51.018;4.282;2024-01-07T09:00:24;2.40;99.90
18906;DHT22;9585;51.018;4.282;2024-01-07T09:02:53;2.30;99.90
18906;DHT22;9585;51.018;4.282;2024-01-07T09:05:21;2.10;99.90
18906;DHT22;9585;51.018;4.282;2024-01-07T09:07:51;1.90;99.90
18906;DHT22;9585;51.018;4.282;2024-01-07T09:10:33;1.90;99.90
18906;DHT22;9585;51.018;4.282;2024-01-07T09:13:03;1.90;99.90
18906;DHT22;9585;51.018;4.282;2024-01-07T09:15:31;2.10;99.90
18906;DHT22;9585;51.018;4.282;2024-01-07T09:17:59;2.30;99.90
18906;DHT22;9585;51.018;4.282;2024-01-07T09:20:27;2.20;99.90
18906;DHT22;9585;51.018;4.282;2024-01-07T09:22:57;2.10;99.90
18906;DHT22;9585;51.018;4.282;2024-01-07T09:25:24;2.30;99.90
18906;DHT22;9585;51.018;4.282;2024-01-07T09:27:52;2.40;99.90
18906;DHT22;9585;51.018;4.282;2024-01-07T09:30:20;2.40;99.90
18906;DHT22;9585;51.018;4.282;2024-01-07T09:32:48;2.20;99.90
18906;DHT22;9585;51.018;4.282;2024-01-07T09:35:16;2.20;99.90
18906;DHT22;9585;51.018;4.282;2024-01-07T09:37:44;2.20;99.90
18906;DHT22;9585;51.018;4.282;2024-01-07T09:40:17;2.30;99.90
18906;DHT22;9585;51.018;4.282;2024-01-07T09:42:46;2.40;99.90
18906;DHT22;9585;51.018;4.282;2024-01-07T09:45:13;2.60;99.90
18906;DHT22;9585;51.018;4.282;2024-01-07T09:47:42;2.50;99.90
18906;DHT22;9585;51.018;4.282;2024-01-07T09:50:11;2.30;99.90
18906;DHT22;9585;51.018;4.282;2024-01-07T09:52:50;2.10;99.90
18906;DHT22;9585;51.018;4.282;2024-01-07T09:55:44;2.10;99.90
18906;DHT22;9585;51.018;4.282;2024-01-07T09:58:29;2.10;99.90
18906;DHT22;9585;51.018;4.282;2024-01-07T10:00:59;2.10;99.90
18906;DHT22;9585;51.018;4.282;2024-01-07T10:04:08;2.00;99.90
18906;DHT22;9585;51.018;4.282;2024-01-07T10:06:46;2.00;99.90
18906;DHT22;9585;51.018;4.282;2024-01-07T10:09:19;2.00;99.90
18906;DHT22;9585;51.018;4.282;2024-01-07T10:11:49;1.90;99.90
18906;DHT22;9585;51.018;4.282;2024-01-07T10:14:50;2.00;99.90
18906;DHT22;9585;51.018;4.282;2024-01-07T10:17:36;2.00;99.90
18906;DHT22;9585;51.018;4.282;2024-01-07T10:20:52;2.00;99.90
18906;DHT22;9585;51.018;4.282;2024-01-07T10:23:27;2.10;99.90
18906;DHT22;9585;51.018;4.282;2024-01-07T10:26:11;2.00;99.90
18906;DHT22;9585;51.018;4.282;2024-01-07T10:28:55;2.00;99.90
18906;DHT22;9585;51.018;4.282;2024-01-07T10:31:24;2.00;99.90
18906;DHT22;9585;51.018;4.282;2024-01-07T10:33:52;2.10;99.90
18906;DHT22;9585;51.018;4.282;2024-01-07T10:36:21;2.10;99.90
18906;DHT22;9585;51.018;4.282;2024-01-07T10:38:49;2.20;99.90
18906;DHT22;9585;51.018;4.282;2024-01-07T10:41:18;2.30;99.90
18906;DHT22;9585;51.018;4.282;2024-01-07T10:43:47;2.20;99.90
18906;DHT22;9585;51.018;4.282;2024-01-07T10:46:17;2.10;99.90
18906;DHT22;9585;51.018;4.282;2024-01-07T10:48:51;1.90;99.90
18906;DHT22;9585;51.018;4.282;2024-01-07T10:51:21;1.70;99.90
18906;DHT22;9585;51.018;4.282;2024-01-07T10:53:52;1.60;99.90
18906;DHT22;9585;51.018;4.282;2024-01-07T10:56:23;1.80;99.90
18906;DHT22;9585;51.018;4.282;2024-01-07T10:58:52;2.10;99.90
18906;DHT22;9585;51.018;4.282;2024-01-07T11:01:22;2.20;99.90
18906;DHT22;9585;51.018;4.282;2024-01-07T11:03:57;2.20;99.90
18906;DHT22;9585;51.018;4.282;2024-01-07T11:06:31;2.30;99.90
18906;DHT22;9585;51.018;4.282;2024-01-07T11:09:06;2.20;99.90
18906;DHT22;9585;51.018;4.282;2024-01-07T11:11:40;2.10;99.90
18906;DHT22;9585;51.018;4.282;2024-01-07T11:17:07;2.40;99.90
18906;DHT22;9585;51.018;4.282;2024-01-07T11:19:35;2.30;99.90
18906;DHT22;9585;51.018;4.282;2024-01-07T11:22:22;2.20;99.90
18906;DHT22;9585;51.018;4.282;2024-01-07T11:24:51;2.30;99.90
18906;DHT22;9585;51.018;4.282;2024-01-07T11:27:18;2.20;99.90
18906;DHT22;9585;51.018;4.282;2024-01-07T11:29:53;2.20;99.90
18906;DHT22;9585;51.018;4.282;2024-01-07T11:32:24;2.10;99.90
18906;DHT22;9585;51.018;4.282;2024-01-07T11:34:56;2.20;99.90
18906;DHT22;9585;51.018;4.282;2024-01-07T11:37:25;2.20;99.90
18906;DHT22;9585;51.018;4.282;2024-01-07T11:39:56;2.00;99.90
18906;DHT22;9585;51.018;4.282;2024-01-07T11:42:24;1.90;99.90
18906;DHT22;9585;51.018;4.282;2024-01-07T11:45:07;1.70;99.90
18906;DHT22;9585;51.018;4.282;2024-01-07T11:47:51;1.70;99.90
18906;DHT22;9585;51.018;4.282;2024-01-07T11:50:19;1.70;99.90
18906;DHT22;9585;51.018;4.282;2024-01-07T11:52:46;1.60;99.90
18906;DHT22;9585;51.018;4.282;2024-01-07T11:55:14;1.70;99.90
18906;DHT22;9585;51.018;4.282;2024-01-07T11:57:42;1.70;99.90
18906;DHT22;9585;51.018;4.282;2024-01-07T12:00:11;1.70;99.90
18906;DHT22;9585;51.018;4.282;2024-01-07T12:02:40;1.70;99.90
18906;DHT22;9585;51.018;4.282;2024-01-07T12:05:09;1.80;99.90
18906;DHT22;9585;51.018;4.282;2024-01-07T12:07:40;1.90;99.90
18906;DHT22;9585;51.018;4.282;2024-01-07T12:10:09;1.80;99.90
18906;DHT22;9585;51.018;4.282;2024-01-07T12:12:40;1.90;99.90
18906;DHT22;9585;51.018;4.282;2024-01-07T12:15:09;2.00;99.90
18906;DHT22;9585;51.018;4.282;2024-01-07T12:17:38;2.00;99.90
18906;DHT22;9585;51.018;4.282;2024-01-07T12:20:10;2.10;99.90
18906;DHT22;9585;51.018;4.282;2024-01-07T12:22:38;1.90;99.90
18906;DHT22;9585;51.018;4.282;2024-01-07T12:25:07;1.90;99.90
18906;DHT22;9585;51.018;4.282;2024-01-07T12:27:34;1.80;99.90
18906;DHT22;9585;51.018;4.282;2024-01-07T12:30:02;1.70;99.90
18906;DHT22;9585;51.018;4.282;2024-01-07T12:32:36;1.90;99.90
18906;DHT22;9585;51.018;4.282;2024-01-07T12:35:05;1.90;99.90
18906;DHT22;9585;51.018;4.282;2024-01-07T12:37:37;1.80;99.90
18906;DHT22;9585;51.018;4.282;2024-01-07T12:40:05;1.70;99.90
18906;DHT22;9585;51.018;4.282;2024-01-07T12:42:36;1.60;99.90
18906;DHT22;9585;51.018;4.282;2024-01-07T12:45:04;1.60;99.90
18906;DHT22;9585;51.018;4.282;2024-01-07T12:47:32;1.70;99.90
18906;DHT22;9585;51.018;4.282;2024-01-07T12:49:59;2.10;99.90
18906;DHT22;9585;51.018;4.282;2024-01-07T13:13:12;2.30;99.90
18906;DHT22;9585;51.018;4.282;2024-01-07T13:15:45;2.20;99.90
18906;DHT22;9585;51.018;4.282;2024-01-07T13:18:16;2.10;99.90
18906;DHT22;9585;51.018;4.282;2024-01-07T13:20:44;2.20;99.90
18906;DHT22;9585;51.018;4.282;2024-01-07T13:23:12;2.20;99.90
18906;DHT22;9585;51.018;4.282;2024-01-07T13:25:40;2.10;99.90
18906;DHT22;9585;51.018;4.282;2024-01-07T13:28:23;2.10;99.90
18906;DHT22;9585;51.018;4.282;2024-01-07T13:30:51;2.10;99.90
18906;DHT22;9585;51.018;4.282;2024-01-07T13:33:22;1.90;99.90
18906;DHT22;9585;51.018;4.282;2024-01-07T13:35:50;1.80;99.90
18906;DHT22;9585;51.018;4.282;2024-01-07T13:38:18;1.90;99.90
18906;DHT22;9585;51.018;4.282;2024-01-07T13:40:48;1.70;99.90
18906;DHT22;9585;51.018;4.282;2024-01-07T13:43:18;1.70;99.90
18906;DHT22;9585;51.018;4.282;2024-01-07T13:45:46;1.80;99.90
18906;DHT22;9585;51.018;4.282;2024-01-07T13:48:13;1.80;99.90
18906;DHT22;9585;51.018;4.282;2024-01-07T13:51:00;1.70;99.90
18906;DHT22;9585;51.018;4.282;2024-01-07T13:53:40;1.50;99.90
18906;DHT22;9585;51.018;4.282;2024-01-07T13:56:07;1.50;99.90
18906;DHT22;9585;51.018;4.282;2024-01-07T13:58:37;1.50;99.90
18906;DHT22;9585;51.018;4.282;2024-01-07T14:01:05;1.40;99.90
18906;DHT22;9585;51.018;4.282;2024-01-07T14:03:32;1.50;99.90
18906;DHT22;9585;51.018;4.282;2024-01-07T14:06:00;1.40;99.90
18906;DHT22;9585;51.018;4.282;2024-01-07T14:08:28;1.30;99.90
18906;DHT22;9585;51.018;4.282;2024-01-07T14:10:56;1.30;99.90
18906;DHT22;9585;51.018;4.282;2024-01-07T14:13:23;1.40;99.90
18906;DHT22;9585;51.018;4.282;2024-01-07T14:15:53;1.60;99.90
18906;DHT22;9585;51.018;4.282;2024-01-07T14:18:23;1.60;99.90
18906;DHT22;9585;51.018;4.282;2024-01-07T14:20:51;1.60;99.90
18906;DHT22;9585;51.018;4.282;2024-01-07T14:23:19;1.50;99.90
18906;DHT22;9585;51.018;4.282;2024-01-07T14:25:47;1.40;99.90
18906;DHT22;9585;51.018;4.282;2024-01-07T14:28:15;1.40;99.90
18906;DHT22;9585;51.018;4.282;2024-01-07T14:30:42;1.30;99.90
18906;DHT22;9585;51.018;4.282;2024-01-07T14:33:12;1.30;99.90
18906;DHT22;9585;51.018;4.282;2024-01-07T14:35:39;1.40;99.90
18906;DHT22;9585;51.018;4.282;2024-01-07T14:38:09;1.40;99.90
18906;DHT22;9585;51.018;4.282;2024-01-07T14:40:36;1.40;99.90
18906;DHT22;9585;51.018;4.282;2024-01-07T14:43:07;1.30;99.90
18906;DHT22;9585;51.018;4.282;2024-01-07T14:45:35;1.30;99.90
18906;DHT22;9585;51.018;4.282;2024-01-07T14:48:03;1.40;99.90
18906;DHT22;9585;51.018;4.282;2024-01-07T14:50:32;1.20;99.90
18906;DHT22;9585;51.018;4.282;2024-01-07T14:53:01;1.20;99.90
18906;DHT22;9585;51.018;4.282;2024-01-07T14:55:28;1.40;99.90
18906;DHT22;9585;51.018;4.282;2024-01-07T14:57:56;1.50;99.90
18906;DHT22;9585;51.018;4.282;2024-01-07T15:00:24;1.50;99.90
18906;DHT22;9585;51.018;4.282;2024-01-07T15:02:51;1.60;99.90
18906;DHT22;9585;51.018;4.282;2024-01-07T15:05:19;1.60;99.90
18906;DHT22;9585;51.018;4.282;2024-01-07T15:07:48;1.70;99.90
18906;DHT22;9585;51.018;4.282;2024-01-07T15:10:16;1.70;99.90
18906;DHT22;9585;51.018;4.282;2024-01-07T15:12:44;1.60;99.90
18906;DHT22;9585;51.018;4.282;2024-01-07T15:15:14;1.60;99.90
18906;DHT22;9585;51.018;4.282;2024-01-07T15:17:41;1.50;99.90
18906;DHT22;9585;51.018;4.282;2024-01-07T15:20:10;1.70;99.90
18906;DHT22;9585;51.018;4.282;2024-01-07T15:22:38;1.50;99.90
18906;DHT22;9585;51.018;4.282;2024-01-07T15:25:08;1.60;99.90
18906;DHT22;9585;51.018;4.282;2024-01-07T15:27:36;1.40;99.90
18906;DHT22;9585;51.018;4.282;2024-01-07T15:30:05;1.40;99.90
18906;DHT22;9585;51.018;4.282;2024-01-07T15:32:33;1.30;99.90
18906;DHT22;9585;51.018;4.282;2024-01-07T15:35:01;1.30;99.90
18906;DHT22;9585;51.018;4.282;2024-01-07T15:37:30;1.30;99.90
18906;DHT22;9585;51.018;4.282;2024-01-07T15:39:58;1.50;99.90
18906;DHT22;9585;51.018;4.282;2024-01-07T15:42:27;1.20;99.90
18906;DHT22;9585;51.018;4.282;2024-01-07T15:44:57;0.90;99.90
18906;DHT22;9585;51.018;4.282;2024-01-07T15:47:25;1.10;99.90
18906;DHT22;9585;51.018;4.282;2024-01-07T15:49:53;1.00;99.90
18906;DHT22;9585;51.018;4.282;2024-01-07T15:52:21;0.80;99.90
18906;DHT22;9585;51.018;4.282;2024-01-07T15:54:49;0.80;99.90
18906;DHT22;9585;51.018;4.282;2024-01-07T15:57:17;0.90;99.90
18906;DHT22;9585;51.018;4.282;2024-01-07T15:59:46;1.10;99.90
18906;DHT22;9585;51.018;4.282;2024-01-07T16:02:15;1.20;99.90
18906;DHT22;9585;51.018;4.282;2024-01-07T16:04:43;1.10;99.90
18906;DHT22;9585;51.018;4.282;2024-01-07T16:07:11;1.00;99.90
18906;DHT22;9585;51.018;4.282;2024-01-07T16:09:39;1.10;99.90
18906;DHT22;9585;51.018;4.282;2024-01-07T16:12:07;0.90;99.90
18906;DHT22;9585;51.018;4.282;2024-01-07T16:14:36;0.90;99.90
18906;DHT22;9585;51.018;4.282;2024-01-07T16:17:06;1.00;99.90
18906;DHT22;9585;51.018;4.282;2024-01-07T16:19:34;0.90;99.90
18906;DHT22;9585;51.018;4.282;2024-01-07T16:22:02;0.80;99.90
18906;DHT22;9585;51.018;4.282;2024-01-07T16:24:33;0.90;99.90
18906;DHT22;9585;51.018;4.282;2024-01-07T16:27:00;1.00;99.90
18906;DHT22;9585;51.018;4.282;2024-01-07T16:29:28;1.00;99.90
18906;DHT22;9585;51.018;4.282;2024-01-07T16:31:56;1.00;99.90
18906;DHT22;9585;51.018;4.282;2024-01-07T16:34:25;1.00;99.90
18906;DHT22;9585;51.018;4.282;2024-01-07T16:36:53;0.80;99.90
18906;DHT22;9585;51.018;4.282;2024-01-07T16:39:21;0.70;99.90
18906;DHT22;9585;51.018;4.282;2024-01-07T16:41:49;0.80;99.90
18906;DHT22;9585;51.018;4.282;2024-01-07T16:44:21;0.60;99.90
18906;DHT22;9585;51.018;4.282;2024-01-07T16:46:49;0.70;99.90
18906;DHT22;9585;51.018;4.282;2024-01-07T16:49:17;0.80;99.90
18906;DHT22;9585;51.018;4.282;2024-01-07T16:51:47;0.80;99.90
18906;DHT22;9585;51.018;4.282;2024-01-07T16:54:14;0.60;99.90
18906;DHT22;9585;51.018;4.282;2024-01-07T16:56:42;0.50;99.90
18906;DHT22;9585;51.018;4.282;2024-01-07T16:59:10;0.50;99.90
18906;DHT22;9585;51.018;4.282;2024-01-07T17:01:41;0.50;99.90
18906;DHT22;9585;51.018;4.282;2024-01-07T17:04:20;0.40;99.90
18906;DHT22;9585;51.018;4.282;2024-01-07T17:06:49;0.40;99.90
18906;DHT22;9585;51.018;4.282;2024-01-07T17:09:17;0.20;99.90
18906;DHT22;9585;51.018;4.282;2024-01-07T17:11:45;0.30;99.90
18906;DHT22;9585;51.018;4.282;2024-01-07T17:14:12;0.20;99.90
18906;DHT22;9585;51.018;4.282;2024-01-07T17:16:40;0.20;99.90
18906;DHT22;9585;51.018;4.282;2024-01-07T17:19:08;-0.10;99.90
18906;DHT22;9585;51.018;4.282;2024-01-07T17:21:36;-0.20;99.90
18906;DHT22;9585;51.018;4.282;2024-01-07T17:24:07;-0.30;99.90
18906;DHT22;9585;51.018;4.282;2024-01-07T17:26:35;-0.30;99.90
18906;DHT22;9585;51.018;4.282;2024-01-07T17:29:04;-0.30;99.90
18906;DHT22;9585;51.018;4.282;2024-01-07T17:31:32;-0.50;99.90
18906;DHT22;9585;51.018;4.282;2024-01-07T17:33:59;-0.50;99.90
18906;DHT22;9585;51.018;4.282;2024-01-07T17:36:27;-0.50;99.90
18906;DHT22;9585;51.018;4.282;2024-01-07T17:38:56;-0.60;99.90
18906;DHT22;9585;51.018;4.282;2024-01-07T17:41:25;-0.70;99.90
18906;DHT22;9585;51.018;4.282;2024-01-07T17:43:54;-0.70;99.90
18906;DHT22;9585;51.018;4.282;2024-01-07T17:46:21;-0.70;99.90
18906;DHT22;9585;51.018;4.282;2024-01-07T17:48:48;-0.60;99.90
18906;DHT22;9585;51.018;4.282;2024-01-07T17:51:18;-0.60;99.90
18906;DHT22;9585;51.018;4.282;2024-01-07T17:53:46;-0.50;99.90
18906;DHT22;9585;51.018;4.282;2024-01-07T17:56:20;-0.60;99.90
18906;DHT22;9585;51.018;4.282;2024-01-07T17:58:49;-0.60;99.90
18906;DHT22;9585;51.018;4.282;2024-01-07T18:01:17;-0.70;99.90
18906;DHT22;9585;51.018;4.282;2024-01-07T18:03:45;-0.70;99.90
18906;DHT22;9585;51.018;4.282;2024-01-07T18:06:13;-0.70;99.90
18906;DHT22;9585;51.018;4.282;2024-01-07T18:08:50;-0.60;99.90
18906;DHT22;9585;51.018;4.282;2024-01-07T18:11:38;-0.60;99.90
18906;DHT22;9585;51.018;4.282;2024-01-07T18:14:07;-0.70;99.90
18906;DHT22;9585;51.018;4.282;2024-01-07T18:16:37;-0.80;99.90
18906;DHT22;9585;51.018;4.282;2024-01-07T18:19:05;-0.80;99.90
18906;DHT22;9585;51.018;4.282;2024-01-07T18:21:33;-0.80;99.90
18906;DHT22;9585;51.018;4.282;2024-01-07T18:24:00;-0.80;99.90
18906;DHT22;9585;51.018;4.282;2024-01-07T18:26:28;-0.70;99.90
18906;DHT22;9585;51.018;4.282;2024-01-07T18:28:55;-0.70;99.90
18906;DHT22;9585;51.018;4.282;2024-01-07T18:31:25;-0.70;99.90
18906;DHT22;9585;51.018;4.282;2024-01-07T18:33:52;-0.80;99.90
18906;DHT22;9585;51.018;4.282;2024-01-07T18:36:20;-0.80;99.90
18906;DHT22;9585;51.018;4.282;2024-01-07T18:38:48;-0.70;99.90
18906;DHT22;9585;51.018;4.282;2024-01-07T18:41:19;-0.70;99.90
18906;DHT22;9585;51.018;4.282;2024-01-07T18:43:46;-0.80;99.90
18906;DHT22;9585;51.018;4.282;2024-01-07T18:46:14;-0.80;99.90
18906;DHT22;9585;51.018;4.282;2024-01-07T18:48:43;-0.70;99.90
18906;DHT22;9585;51.018;4.282;2024-01-07T18:51:11;-0.60;99.90
18906;DHT22;9585;51.018;4.282;2024-01-07T18:53:38;-0.70;99.90
18906;DHT22;9585;51.018;4.282;2024-01-07T18:56:07;-0.70;99.90
18906;DHT22;9585;51.018;4.282;2024-01-07T18:58:35;-0.70;99.90
18906;DHT22;9585;51.018;4.282;2024-01-07T19:01:05;-0.80;99.90
18906;DHT22;9585;51.018;4.282;2024-01-07T19:03:33;-0.60;99.90
18906;DHT22;9585;51.018;4.282;2024-01-07T19:06:02;-0.60;99.90
18906;DHT22;9585;51.018;4.282;2024-01-07T19:08:30;-0.70;99.90
18906;DHT22;9585;51.018;4.282;2024-01-07T19:10:58;-0.70;99.90